createdAt,value
2022-12-31T00:01:06.600Z,69.20
2022-12-31T00:06:27.785Z,69.30
2022-12-31T00:11:29.913Z,69.40
2022-12-31T00:16:33.712Z,69.30
2022-12-31T00:21:35.825Z,69.30
2022-12-31T00:26:37.551Z,69.50
2022-12-31T00:31:39.580Z,69.40
2022-12-31T00:36:42.553Z,69.30
2022-12-31T00:41:44.390Z,69.30
2022-12-31T00:46:46.064Z,69.30
2022-12-31T00:51:47.753Z,69.10
2022-12-31T00:56:49.397Z,69.10
2022-12-31T01:01:51.275Z,69.10
2022-12-31T01:06:53.028Z,69.20
2022-12-31T01:11:54.769Z,69.10
2022-12-31T01:16:56.436Z,69.10
2022-12-31T01:21:58.008Z,69.10
2022-12-31T01:26:59.629Z,69.20
2022-12-31T01:32:01.298Z,69.20
2022-12-31T01:37:02.951Z,69.10
2022-12-31T01:42:04.951Z,69.10
2022-12-31T01:47:11.917Z,69.10
2022-12-31T01:52:22.539Z,69.20
2022-12-31T01:57:24.684Z,69.10
2022-12-31T02:02:26.466Z,69.10
2022-12-31T02:07:28.235Z,69.20
2022-12-31T02:12:29.793Z,69.20
2022-12-31T02:17:31.323Z,69.20
2022-12-31T02:22:51.550Z,69.10
2022-12-31T02:28:05.651Z,69.20
2022-12-31T02:33:14.294Z,69.20
2022-12-31T02:38:19.589Z,69.20
2022-12-31T02:43:21.154Z,69.20
2022-12-31T02:48:31.665Z,69.20
2022-12-31T02:53:56.734Z,69.20
2022-12-31T02:59:21.291Z,69.20
2022-12-31T03:04:33.092Z,69.10
2022-12-31T03:09:35.076Z,69.20
2022-12-31T03:14:36.663Z,69.30
2022-12-31T03:19:56.780Z,69.30
2022-12-31T03:25:16.842Z,69.20
2022-12-31T03:30:18.898Z,69.30
2022-12-31T03:35:21.481Z,69.30
2022-12-31T03:40:24.334Z,69.30
2022-12-31T03:45:26.005Z,69.30
2022-12-31T03:50:27.655Z,69.30
2022-12-31T03:55:29.274Z,69.30
2022-12-31T04:00:30.913Z,69.20
2022-12-31T04:05:33.639Z,69.20
2022-12-31T04:10:35.211Z,69.20
2022-12-31T04:15:36.869Z,69.30
2022-12-31T04:20:38.451Z,69.30
2022-12-31T04:25:40.290Z,69.30
2022-12-31T04:30:41.913Z,69.30
2022-12-31T04:35:43.738Z,69.30
2022-12-31T04:41:04.468Z,69.40
2022-12-31T06:03:23.290Z,68.90
2022-12-31T06:08:24.905Z,68.20
2022-12-31T06:13:26.617Z,68.10
2022-12-31T06:18:28.341Z,68.00
2022-12-31T06:23:29.973Z,67.90
2022-12-31T06:28:31.868Z,68.00
2022-12-31T06:33:33.882Z,69.10
2022-12-31T06:38:37.183Z,68.20
2022-12-31T06:43:39.851Z,68.40
2022-12-31T06:48:43.126Z,68.30
2022-12-31T06:53:45.430Z,68.30
2022-12-31T06:58:47.369Z,68.30
2022-12-31T07:04:17.095Z,68.40
2022-12-31T07:09:39.929Z,68.50
2022-12-31T07:14:45.218Z,68.60
2022-12-31T07:19:57.494Z,68.60
2022-12-31T07:24:59.674Z,68.80
2022-12-31T07:30:07.409Z,68.90
2022-12-31T07:35:16.115Z,69.10
2022-12-31T07:40:20.600Z,69.20
2022-12-31T07:45:41.090Z,69.50
2022-12-31T07:50:42.842Z,69.70
2022-12-31T07:55:44.507Z,69.70
2022-12-31T08:00:46.227Z,69.80
2022-12-31T08:05:52.257Z,70.00
2022-12-31T08:11:05.751Z,70.00
2022-12-31T08:16:10.810Z,70.30
2022-12-31T08:21:35.683Z,71.30
2022-12-31T08:26:46.907Z,71.00
2022-12-31T08:32:06.479Z,71.60
2022-12-31T08:37:10.870Z,71.70
2022-12-31T08:42:29.621Z,72.60
2022-12-31T08:47:38.740Z,74.80
2022-12-31T08:52:40.859Z,72.60
2022-12-31T08:57:49.082Z,71.50
2022-12-31T09:03:06.277Z,71.70
2022-12-31T09:08:20.151Z,71.80
2022-12-31T09:13:21.706Z,71.80
2022-12-31T09:18:28.398Z,71.60
2022-12-31T09:23:34.646Z,71.60
2022-12-31T09:28:44.945Z,71.50
2022-12-31T09:33:51.296Z,71.70
2022-12-31T09:38:57.389Z,71.60
2022-12-31T09:44:14.065Z,71.60
2022-12-31T09:49:15.631Z,71.70
2022-12-31T09:54:20.181Z,72.00
2022-12-31T09:59:26.286Z,71.90
2022-12-31T10:04:39.933Z,71.90
2022-12-31T10:09:43.579Z,71.90
2022-12-31T10:14:47.574Z,71.90
2022-12-31T10:19:55.376Z,71.80
2022-12-31T10:25:02.875Z,71.80
2022-12-31T10:30:13.453Z,71.90
2022-12-31T10:35:21.031Z,72.00
2022-12-31T10:40:38.846Z,72.00
2022-12-31T10:45:40.615Z,71.90
2022-12-31T10:50:48.263Z,73.20
2022-12-31T10:55:59.084Z,72.80
2022-12-31T11:01:03.604Z,72.70
2022-12-31T11:06:24.334Z,73.10
2022-12-31T11:11:29.051Z,73.20
2022-12-31T11:16:48.713Z,73.40
2022-12-31T11:21:50.329Z,73.30
2022-12-31T11:27:03.773Z,73.30
2022-12-31T11:32:16.651Z,73.40
2022-12-31T11:37:36.796Z,73.40
2022-12-31T11:42:55.236Z,73.50
2022-12-31T11:48:29.520Z,73.70
2022-12-31T11:53:51.430Z,73.80
2022-12-31T11:58:53.802Z,73.80
2022-12-31T12:03:55.451Z,73.80
2022-12-31T12:08:59.459Z,74.00
2022-12-31T12:14:01.418Z,74.20
2022-12-31T12:19:04.920Z,74.60
2022-12-31T12:24:18.886Z,74.70
2022-12-31T12:29:22.000Z,74.80
2022-12-31T12:34:49.368Z,75.10
2022-12-31T12:39:59.161Z,75.40
2022-12-31T12:45:20.997Z,75.60
2022-12-31T12:50:23.903Z,76.20
2022-12-31T12:55:35.844Z,77.50
2022-12-31T13:00:50.819Z,77.10
2022-12-31T13:06:06.388Z,79.40
2022-12-31T13:11:08.985Z,77.60
2022-12-31T13:16:26.651Z,77.70
2022-12-31T13:21:28.384Z,77.50
2022-12-31T13:26:37.154Z,77.30
2022-12-31T13:31:39.602Z,77.20
2022-12-31T13:36:42.314Z,77.10
2022-12-31T13:41:49.332Z,76.90
2022-12-31T13:46:58.872Z,77.10
2022-12-31T13:52:19.044Z,76.90
2022-12-31T13:57:29.438Z,76.70
2022-12-31T14:02:40.744Z,76.90
2022-12-31T14:07:52.572Z,76.90
2022-12-31T14:12:59.158Z,77.00
2022-12-31T14:18:06.120Z,77.00
2022-12-31T14:23:19.870Z,76.90
2022-12-31T14:28:26.301Z,77.00
2022-12-31T14:33:33.864Z,77.20
2022-12-31T14:38:49.986Z,77.20
2022-12-31T14:43:54.714Z,77.20
2022-12-31T14:49:03.392Z,77.10
2022-12-31T14:54:05.019Z,77.10
2022-12-31T14:59:25.134Z,77.00
2022-12-31T15:04:45.706Z,77.00
2022-12-31T15:09:50.026Z,77.00
2022-12-31T15:15:08.157Z,77.00
2022-12-31T15:20:17.686Z,76.90
2022-12-31T15:25:41.080Z,77.00
2022-12-31T15:30:47.296Z,76.80
2022-12-31T15:35:50.705Z,76.80
2022-12-31T15:40:52.794Z,76.80
2022-12-31T15:45:55.498Z,76.70
2022-12-31T15:50:58.845Z,76.70
2022-12-31T15:56:01.568Z,76.70
2022-12-31T16:01:18.949Z,76.70
2022-12-31T16:06:20.994Z,76.70
2022-12-31T16:11:23.056Z,76.70
2022-12-31T16:16:31.813Z,76.60
2022-12-31T16:21:34.747Z,76.70
2022-12-31T16:26:43.717Z,76.80
2022-12-31T16:31:46.006Z,76.70
2022-12-31T16:37:06.829Z,76.60
2022-12-31T16:42:08.502Z,76.70
2022-12-31T16:47:15.045Z,76.60
2022-12-31T16:52:27.922Z,76.60
2022-12-31T16:57:30.661Z,76.60
2022-12-31T17:02:39.735Z,76.60
2022-12-31T17:07:42.340Z,76.60
2022-12-31T17:13:25.542Z,76.50
2022-12-31T17:18:08.242Z,76.50
2022-12-31T17:23:14.960Z,76.50
2022-12-31T17:28:26.030Z,76.60
2022-12-31T17:33:28.465Z,76.50
2022-12-31T17:38:31.147Z,76.50
2022-12-31T17:43:36.814Z,76.50
2022-12-31T17:48:38.603Z,76.40
2022-12-31T17:53:40.654Z,76.40
2022-12-31T17:58:43.628Z,76.30
2022-12-31T18:03:45.512Z,76.20
2022-12-31T18:08:47.097Z,76.30
2022-12-31T18:13:48.912Z,76.30
2022-12-31T18:18:50.568Z,76.10
2022-12-31T18:28:54.054Z,76.10
2022-12-31T18:33:56.745Z,75.90
2022-12-31T18:38:58.389Z,75.90
2022-12-31T18:44:00.009Z,76.10
2022-12-31T18:49:01.674Z,75.90
2022-12-31T18:54:03.812Z,76.00
2022-12-31T18:59:05.461Z,75.90
2022-12-31T19:04:13.265Z,75.90
2022-12-31T19:09:43.415Z,75.80
2022-12-31T19:14:36.883Z,75.90
2022-12-31T19:19:38.471Z,75.80
2022-12-31T19:24:40.057Z,76.00
2022-12-31T19:29:41.644Z,75.80
2022-12-31T19:34:43.369Z,75.80
2022-12-31T19:39:45.057Z,75.70
2022-12-31T19:44:46.755Z,75.60
2022-12-31T19:49:48.535Z,75.60
2022-12-31T19:54:50.216Z,75.50
2022-12-31T19:59:51.886Z,75.50
2022-12-31T20:04:53.595Z,75.40
2022-12-31T20:09:55.266Z,75.30
2022-12-31T20:14:56.995Z,75.40
2022-12-31T20:19:58.655Z,75.40
2022-12-31T20:25:00.462Z,75.30
2022-12-31T20:30:02.138Z,75.30
2022-12-31T20:35:04.046Z,75.50
2022-12-31T20:40:05.872Z,75.40
2022-12-31T20:45:08.493Z,75.30
2022-12-31T20:50:12.282Z,75.30
2022-12-31T20:55:15.096Z,75.30
2022-12-31T21:00:16.899Z,75.20
2022-12-31T21:05:18.731Z,75.10
2022-12-31T21:10:20.536Z,75.10
2022-12-31T21:15:22.110Z,75.10
2022-12-31T21:20:23.700Z,75.10
2022-12-31T21:25:25.624Z,75.00
2022-12-31T21:30:27.325Z,75.00
2022-12-31T21:35:51.917Z,75.10
2022-12-31T21:40:51.513Z,75.10
2022-12-31T21:46:19.265Z,75.00
2022-12-31T21:51:21.305Z,75.20
2022-12-31T21:56:23.228Z,74.90
2022-12-31T22:01:43.353Z,75.00
2022-12-31T22:06:45.032Z,75.10
2022-12-31T22:11:47.633Z,74.80
2022-12-31T22:16:49.187Z,74.90
2022-12-31T22:21:50.888Z,74.90
2022-12-31T22:26:55.500Z,74.70
2022-12-31T22:32:01.128Z,74.80
2022-12-31T22:37:20.235Z,74.90
2022-12-31T22:42:24.628Z,74.90
2022-12-31T22:47:26.387Z,74.80
2022-12-31T22:52:28.046Z,75.00
2022-12-31T22:57:29.678Z,74.90
2022-12-31T23:02:31.693Z,74.70
2022-12-31T23:07:33.785Z,74.80
2022-12-31T23:12:35.434Z,74.90
2022-12-31T23:17:55.637Z,75.00
2022-12-31T23:23:12.491Z,74.80
2022-12-31T23:28:21.646Z,75.00
2022-12-31T23:33:24.410Z,75.20
2022-12-31T23:38:26.077Z,75.20
2022-12-31T23:43:27.720Z,75.00
2022-12-31T23:48:29.379Z,75.10
2022-12-31T23:53:31.028Z,75.10
2022-12-31T23:58:32.735Z,75.00
